sensor_id;sensor_type;location;lat;lon;timestamp;pressure;altitude;pressure_sealevel;temperature;humidity
50349;BME280;36250;48.740;22.174;2022-12-17T00:02:13;99573.63;;;4.14;100.00
50349;BME280;36250;48.740;22.174;2022-12-17T00:04:57;99576.13;;;4.15;100.00
50349;BME280;36250;48.740;22.174;2022-12-17T00:07:41;99572.19;;;4.11;100.00
50349;BME280;36250;48.740;22.174;2022-12-17T00:10:25;99579.88;;;4.13;100.00
50349;BME280;36250;48.740;22.174;2022-12-17T00:13:19;99586.41;;;4.17;100.00
50349;BME280;36250;48.740;22.174;2022-12-17T00:16:04;99594.13;;;4.18;100.00
50349;BME280;36250;48.740;22.174;2022-12-17T00:18:48;99593.63;;;4.15;100.00
50349;BME280;36250;48.740;22.174;2022-12-17T00:21:32;99593.78;;;4.05;100.00
50349;BME280;36250;48.740;22.174;2022-12-17T00:24:16;99590.19;;;4.06;100.00
50349;BME280;36250;48.740;22.174;2022-12-17T00:27:00;99594.63;;;4.05;100.00
50349;BME280;36250;48.740;22.174;2022-12-17T00:29:44;99598.53;;;4.10;100.00
50349;BME280;36250;48.740;22.174;2022-12-17T00:32:28;99595.44;;;4.14;100.00
50349;BME280;36250;48.740;22.174;2022-12-17T00:35:12;99598.22;;;4.13;100.00
50349;BME280;36250;48.740;22.174;2022-12-17T00:37:55;99598.53;;;4.10;100.00
50349;BME280;36250;48.740;22.174;2022-12-17T00:40:39;99613.09;;;4.04;100.00
50349;BME280;36250;48.740;22.174;2022-12-17T00:43:23;99618.00;;;3.90;100.00
50349;BME280;36250;48.740;22.174;2022-12-17T00:46:08;99624.88;;;3.83;100.00
50349;BME280;36250;48.740;22.174;2022-12-17T00:48:51;99623.56;;;3.79;100.00
50349;BME280;36250;48.740;22.174;2022-12-17T00:51:35;99612.44;;;3.77;100.00
50349;BME280;36250;48.740;22.174;2022-12-17T00:54:19;99608.50;;;3.73;100.00
50349;BME280;36250;48.740;22.174;2022-12-17T00:57:03;99611.25;;;3.71;100.00
50349;BME280;36250;48.740;22.174;2022-12-17T00:59:47;99602.75;;;3.69;100.00
50349;BME280;36250;48.740;22.174;2022-12-17T01:02:31;99601.44;;;3.65;100.00
50349;BME280;36250;48.740;22.174;2022-12-17T01:05:15;99585.06;;;3.63;100.00
50349;BME280;36250;48.740;22.174;2022-12-17T01:08:09;99577.53;;;3.60;100.00
50349;BME280;36250;48.740;22.174;2022-12-17T01:11:04;99585.53;;;3.58;100.00
50349;BME280;36250;48.740;22.174;2022-12-17T01:13:49;99581.94;;;3.59;100.00
50349;BME280;36250;48.740;22.174;2022-12-17T01:16:33;99580.94;;;3.60;100.00
50349;BME280;36250;48.740;22.174;2022-12-17T01:19:17;99572.63;;;3.65;100.00
50349;BME280;36250;48.740;22.174;2022-12-17T01:22:01;99573.59;;;3.72;100.00
50349;BME280;36250;48.740;22.174;2022-12-17T01:24:45;99571.97;;;3.80;100.00
50349;BME280;36250;48.740;22.174;2022-12-17T01:27:29;99579.53;;;3.91;100.00
50349;BME280;36250;48.740;22.174;2022-12-17T01:30:13;99575.63;;;3.95;100.00
50349;BME280;36250;48.740;22.174;2022-12-17T01:33:05;99562.84;;;4.00;100.00
50349;BME280;36250;48.740;22.174;2022-12-17T01:35:53;99562.19;;;4.06;100.00
50349;BME280;36250;48.740;22.174;2022-12-17T01:38:37;99569.38;;;4.13;100.00
50349;BME280;36250;48.740;22.174;2022-12-17T01:41:21;99576.13;;;4.15;100.00
50349;BME280;36250;48.740;22.174;2022-12-17T01:44:43;99565.63;;;4.15;100.00
50349;BME280;36250;48.740;22.174;2022-12-17T01:48:10;99580.69;;;4.22;100.00
50349;BME280;36250;48.740;22.174;2022-12-17T01:50:53;99587.91;;;4.28;100.00
50349;BME280;36250;48.740;22.174;2022-12-17T01:53:44;99583.47;;;4.20;100.00
50349;BME280;36250;48.740;22.174;2022-12-17T01:56:30;99581.69;;;4.12;100.00
50349;BME280;36250;48.740;22.174;2022-12-17T01:59:15;99585.91;;;4.05;100.00
50349;BME280;36250;48.740;22.174;2022-12-17T02:02:01;99585.25;;;4.03;100.00
50349;BME280;36250;48.740;22.174;2022-12-17T02:04:45;99577.41;;;4.03;100.00
50349;BME280;36250;48.740;22.174;2022-12-17T02:07:39;99564.28;;;4.03;100.00
50349;BME280;36250;48.740;22.174;2022-12-17T02:13:52;99600.34;;;4.01;100.00
50349;BME280;36250;48.740;22.174;2022-12-17T02:16:46;99607.22;;;4.02;100.00
50349;BME280;36250;48.740;22.174;2022-12-17T02:19:44;99612.31;;;3.95;100.00
50349;BME280;36250;48.740;22.174;2022-12-17T02:26:12;99611.81;;;3.40;100.00
50349;BME280;36250;48.740;22.174;2022-12-17T02:28:54;99616.03;;;3.25;100.00
50349;BME280;36250;48.740;22.174;2022-12-17T02:31:41;99604.03;;;3.14;100.00
50349;BME280;36250;48.740;22.174;2022-12-17T02:34:27;99601.28;;;3.15;100.00
50349;BME280;36250;48.740;22.174;2022-12-17T02:37:10;99626.06;;;3.03;100.00
50349;BME280;36250;48.740;22.174;2022-12-17T02:39:54;99635.38;;;2.97;100.00
50349;BME280;36250;48.740;22.174;2022-12-17T02:42:39;99619.56;;;2.81;100.00
50349;BME280;36250;48.740;22.174;2022-12-17T02:45:24;99612.84;;;2.78;100.00
50349;BME280;36250;48.740;22.174;2022-12-17T02:48:08;99606.47;;;2.81;100.00
50349;BME280;36250;48.740;22.174;2022-12-17T02:50:55;99605.00;;;2.78;100.00
50349;BME280;36250;48.740;22.174;2022-12-17T02:53:43;99607.13;;;2.83;100.00
50349;BME280;36250;48.740;22.174;2022-12-17T02:56:27;99613.03;;;2.85;100.00
50349;BME280;36250;48.740;22.174;2022-12-17T02:59:11;99605.19;;;2.85;100.00
50349;BME280;36250;48.740;22.174;2022-12-17T03:01:55;99608.78;;;2.84;100.00
50349;BME280;36250;48.740;22.174;2022-12-17T03:04:53;99604.75;;;2.89;100.00
50349;BME280;36250;48.740;22.174;2022-12-17T03:07:37;99601.00;;;2.92;100.00
50349;BME280;36250;48.740;22.174;2022-12-17T03:10:21;99593.41;;;2.81;100.00
50349;BME280;36250;48.740;22.174;2022-12-17T03:13:04;99596.81;;;2.73;100.00
50349;BME280;36250;48.740;22.174;2022-12-17T03:16:10;99599.88;;;2.68;100.00
50349;BME280;36250;48.740;22.174;2022-12-17T03:18:54;99594.75;;;2.58;100.00
50349;BME280;36250;48.740;22.174;2022-12-17T03:21:38;99593.25;;;2.56;100.00
50349;BME280;36250;48.740;22.174;2022-12-17T03:24:22;99590.66;;;2.56;100.00
50349;BME280;36250;48.740;22.174;2022-12-17T03:27:06;99596.28;;;2.43;100.00
50349;BME280;36250;48.740;22.174;2022-12-17T03:29:50;99604.25;;;2.41;100.00
50349;BME280;36250;48.740;22.174;2022-12-17T03:32:34;99611.66;;;2.46;100.00
50349;BME280;36250;48.740;22.174;2022-12-17T03:35:18;99605.97;;;2.51;100.00
50349;BME280;36250;48.740;22.174;2022-12-17T03:38:06;99598.59;;;2.46;100.00
50349;BME280;36250;48.740;22.174;2022-12-17T03:40:50;99602.84;;;2.47;100.00
50349;BME280;36250;48.740;22.174;2022-12-17T03:43:34;99618.22;;;2.50;100.00
50349;BME280;36250;48.740;22.174;2022-12-17T03:46:18;99625.91;;;2.52;100.00
50349;BME280;36250;48.740;22.174;2022-12-17T03:49:02;99628.19;;;2.46;100.00
50349;BME280;36250;48.740;22.174;2022-12-17T03:51:46;99634.28;;;2.37;100.00
50349;BME280;36250;48.740;22.174;2022-12-17T03:54:30;99642.81;;;2.21;100.00
50349;BME280;36250;48.740;22.174;2022-12-17T03:57:14;99655.69;;;2.14;100.00
50349;BME280;36250;48.740;22.174;2022-12-17T03:59:57;99651.84;;;2.09;100.00
50349;BME280;36250;48.740;22.174;2022-12-17T04:02:41;99656.56;;;2.05;100.00
50349;BME280;36250;48.740;22.174;2022-12-17T04:05:25;99650.75;;;2.11;100.00
50349;BME280;36250;48.740;22.174;2022-12-17T04:08:09;99650.88;;;2.10;100.00
50349;BME280;36250;48.740;22.174;2022-12-17T04:10:53;99649.78;;;2.12;100.00
50349;BME280;36250;48.740;22.174;2022-12-17T04:13:37;99643.88;;;2.10;100.00
50349;BME280;36250;48.740;22.174;2022-12-17T04:16:21;99650.59;;;2.13;100.00
50349;BME280;36250;48.740;22.174;2022-12-17T04:19:05;99641.69;;;2.06;100.00
50349;BME280;36250;48.740;22.174;2022-12-17T04:21:48;99641.03;;;2.03;100.00
50349;BME280;36250;48.740;22.174;2022-12-17T04:24:32;99644.53;;;1.94;100.00
50349;BME280;36250;48.740;22.174;2022-12-17T04:27:16;99652.00;;;1.89;100.00
50349;BME280;36250;48.740;22.174;2022-12-17T04:30:00;99651.75;;;1.82;100.00
50349;BME280;36250;48.740;22.174;2022-12-17T04:32:44;99654.66;;;1.79;100.00
50349;BME280;36250;48.740;22.174;2022-12-17T04:35:28;99665.53;;;1.74;100.00
50349;BME280;36250;48.740;22.174;2022-12-17T04:38:14;99651.53;;;1.76;100.00
50349;BME280;36250;48.740;22.174;2022-12-17T04:40:57;99662.34;;;1.81;100.00
50349;BME280;36250;48.740;22.174;2022-12-17T04:43:41;99666.34;;;1.85;100.00
50349;BME280;36250;48.740;22.174;2022-12-17T04:46:25;99660.13;;;1.86;100.00
50349;BME280;36250;48.740;22.174;2022-12-17T04:49:09;99660.41;;;1.83;100.00
50349;BME280;36250;48.740;22.174;2022-12-17T04:51:53;99660.13;;;1.86;100.00
50349;BME280;36250;48.740;22.174;2022-12-17T04:54:37;99655.28;;;1.91;100.00
50349;BME280;36250;48.740;22.174;2022-12-17T04:57:21;99666.72;;;1.90;100.00
50349;BME280;36250;48.740;22.174;2022-12-17T05:00:05;99662.97;;;1.93;100.00
50349;BME280;36250;48.740;22.174;2022-12-17T05:02:49;99661.41;;;2.00;100.00
50349;BME280;36250;48.740;22.174;2022-12-17T05:05:33;99672.50;;;2.02;100.00
50349;BME280;36250;48.740;22.174;2022-12-17T05:08:17;99668.25;;;2.01;100.00
50349;BME280;36250;48.740;22.174;2022-12-17T05:11:04;99667.16;;;2.03;100.00
50349;BME280;36250;48.740;22.174;2022-12-17T05:13:48;99669.53;;;1.97;100.00
50349;BME280;36250;48.740;22.174;2022-12-17T05:16:32;99672.97;;;1.97;100.00
50349;BME280;36250;48.740;22.174;2022-12-17T05:19:15;99672.81;;;1.99;100.00
50349;BME280;36250;48.740;22.174;2022-12-17T05:21:59;99671.47;;;1.95;100.00
50349;BME280;36250;48.740;22.174;2022-12-17T05:24:43;99670.78;;;1.93;100.00
50349;BME280;36250;48.740;22.174;2022-12-17T05:27:27;99676.84;;;1.93;100.00
50349;BME280;36250;48.740;22.174;2022-12-17T05:30:11;99685.13;;;1.88;100.00
50349;BME280;36250;48.740;22.174;2022-12-17T05:33:02;99689.13;;;1.83;100.00
50349;BME280;36250;48.740;22.174;2022-12-17T05:35:46;99684.88;;;1.82;100.00
50349;BME280;36250;48.740;22.174;2022-12-17T05:38:30;99695.41;;;1.72;100.00
50349;BME280;36250;48.740;22.174;2022-12-17T05:41:14;99707.41;;;1.65;100.00
50349;BME280;36250;48.740;22.174;2022-12-17T05:43:57;99705.75;;;1.64;100.00
50349;BME280;36250;48.740;22.174;2022-12-17T05:46:41;99703.53;;;1.69;100.00
50349;BME280;36250;48.740;22.174;2022-12-17T05:49:25;99714.47;;;1.72;100.00
50349;BME280;36250;48.740;22.174;2022-12-17T05:52:09;99709.94;;;1.74;100.00
50349;BME280;36250;48.740;22.174;2022-12-17T05:54:53;99720.75;;;1.80;100.00
50349;BME280;36250;48.740;22.174;2022-12-17T05:57:37;99727.63;;;1.81;100.00
50349;BME280;36250;48.740;22.174;2022-12-17T06:00:21;99718.56;;;1.85;100.00
50349;BME280;36250;48.740;22.174;2022-12-17T06:03:05;99724.06;;;1.82;100.00
50349;BME280;36250;48.740;22.174;2022-12-17T06:05:53;99731.50;;;1.77;100.00
50349;BME280;36250;48.740;22.174;2022-12-17T06:08:37;99738.53;;;1.76;100.00
50349;BME280;36250;48.740;22.174;2022-12-17T06:11:21;99738.06;;;1.81;100.00
50349;BME280;36250;48.740;22.174;2022-12-17T06:14:07;99745.81;;;1.72;100.00
50349;BME280;36250;48.740;22.174;2022-12-17T06:16:51;99745.81;;;1.72;100.00
50349;BME280;36250;48.740;22.174;2022-12-17T06:19:35;99741.84;;;1.68;100.00
50349;BME280;36250;48.740;22.174;2022-12-17T06:22:18;99755.19;;;1.65;100.00
50349;BME280;36250;48.740;22.174;2022-12-17T06:25:02;99753.25;;;1.67;100.00
50349;BME280;36250;48.740;22.174;2022-12-17T06:27:46;99758.91;;;1.63;100.00
50349;BME280;36250;48.740;22.174;2022-12-17T06:30:30;99767.88;;;1.60;100.00
50349;BME280;36250;48.740;22.174;2022-12-17T06:33:14;99760.31;;;1.57;100.00
50349;BME280;36250;48.740;22.174;2022-12-17T06:35:58;99770.59;;;1.58;100.00
50349;BME280;36250;48.740;22.174;2022-12-17T06:38:43;99771.03;;;1.54;100.00
50349;BME280;36250;48.740;22.174;2022-12-17T06:41:27;99772.97;;;1.52;100.00
50349;BME280;36250;48.740;22.174;2022-12-17T06:44:11;99775.19;;;1.47;100.00
50349;BME280;36250;48.740;22.174;2022-12-17T06:46:55;99791.53;;;1.49;100.00
50349;BME280;36250;48.740;22.174;2022-12-17T06:49:39;99791.81;;;1.46;100.00
50349;BME280;36250;48.740;22.174;2022-12-17T06:52:23;99797.72;;;1.48;100.00
50349;BME280;36250;48.740;22.174;2022-12-17T06:55:07;99794.28;;;1.47;100.00
50349;BME280;36250;48.740;22.174;2022-12-17T06:57:56;99799.78;;;1.44;100.00
50349;BME280;36250;48.740;22.174;2022-12-17T07:00:40;99804.19;;;1.43;100.00
50349;BME280;36250;48.740;22.174;2022-12-17T07:03:23;99808.56;;;1.43;100.00
50349;BME280;36250;48.740;22.174;2022-12-17T07:06:07;99805.00;;;1.44;100.00
50349;BME280;36250;48.740;22.174;2022-12-17T07:08:51;99809.41;;;1.43;100.00
50349;BME280;36250;48.740;22.174;2022-12-17T07:11:35;99820.78;;;1.42;100.00
50349;BME280;36250;48.740;22.174;2022-12-17T07:14:19;99822.03;;;1.38;100.00
50349;BME280;36250;48.740;22.174;2022-12-17T07:17:03;99822.59;;;1.32;100.00
50349;BME280;36250;48.740;22.174;2022-12-17T07:19:47;99828.94;;;1.29;100.00
50349;BME280;36250;48.740;22.174;2022-12-17T07:22:32;99838.81;;;1.26;100.00
50349;BME280;36250;48.740;22.174;2022-12-17T07:25:16;99837.31;;;1.23;100.00
50349;BME280;36250;48.740;22.174;2022-12-17T07:28:00;99839.94;;;1.23;100.00
50349;BME280;36250;48.740;22.174;2022-12-17T07:30:44;99843.22;;;1.25;100.00
50349;BME280;36250;48.740;22.174;2022-12-17T07:33:28;99848.28;;;1.27;100.00
50349;BME280;36250;48.740;22.174;2022-12-17T07:36:12;99845.97;;;1.24;100.00
50349;BME280;36250;48.740;22.174;2022-12-17T07:38:56;99845.97;;;1.14;100.00
50349;BME280;36250;48.740;22.174;2022-12-17T07:41:40;99851.47;;;1.11;100.00
50349;BME280;36250;48.740;22.174;2022-12-17T07:44:24;99856.94;;;1.08;100.00
50349;BME280;36250;48.740;22.174;2022-12-17T07:47:07;99873.44;;;1.08;100.00
50349;BME280;36250;48.740;22.174;2022-12-17T07:49:51;99878.66;;;1.08;100.00
50349;BME280;36250;48.740;22.174;2022-12-17T07:52:35;99875.09;;;1.09;100.00
50349;BME280;36250;48.740;22.174;2022-12-17T07:55:19;99881.00;;;1.11;100.00
50349;BME280;36250;48.740;22.174;2022-12-17T07:58:07;99879.88;;;1.14;100.00
50349;BME280;36250;48.740;22.174;2022-12-17T08:00:51;99878.78;;;1.17;100.00
50349;BME280;36250;48.740;22.174;2022-12-17T08:03:35;99885.66;;;1.18;100.00
50349;BME280;36250;48.740;22.174;2022-12-17T08:06:19;99901.16;;;1.19;100.00
50349;BME280;36250;48.740;22.174;2022-12-17T08:09:03;99915.84;;;1.20;100.00
50349;BME280;36250;48.740;22.174;2022-12-17T08:11:47;99921.22;;;1.19;100.00
50349;BME280;36250;48.740;22.174;2022-12-17T08:14:30;99920.38;;;1.18;100.00
50349;BME280;36250;48.740;22.174;2022-12-17T08:17:14;99932.75;;;1.16;100.00
50349;BME280;36250;48.740;22.174;2022-12-17T08:19:58;99930.13;;;1.16;100.00
50349;BME280;36250;48.740;22.174;2022-12-17T08:22:42;99935.34;;;1.16;100.00
50349;BME280;36250;48.740;22.174;2022-12-17T08:25:26;99936.59;;;1.12;100.00
50349;BME280;36250;48.740;22.174;2022-12-17T08:28:09;99948.66;;;1.13;100.00
50349;BME280;36250;48.740;22.174;2022-12-17T08:30:53;99949.22;;;1.07;100.00
50349;BME280;36250;48.740;22.174;2022-12-17T08:33:37;99961.44;;;1.06;100.00
50349;BME280;36250;48.740;22.174;2022-12-17T08:36:21;99965.53;;;0.99;100.00
50349;BME280;36250;48.740;22.174;2022-12-17T08:39:05;99965.09;;;0.94;100.00
50349;BME280;36250;48.740;22.174;2022-12-17T08:41:49;99957.28;;;0.94;100.00
50349;BME280;36250;48.740;22.174;2022-12-17T08:44:33;99973.78;;;0.94;100.00
50349;BME280;36250;48.740;22.174;2022-12-17T08:47:16;99977.19;;;0.95;100.00
50349;BME280;36250;48.740;22.174;2022-12-17T08:50:02;99975.41;;;0.95;100.00
50349;BME280;36250;48.740;22.174;2022-12-17T08:52:46;99974.31;;;0.98;100.00
50349;BME280;36250;48.740;22.174;2022-12-17T08:55:30;99985.31;;;1.01;100.00
50349;BME280;36250;48.740;22.174;2022-12-17T08:58:14;99990.13;;;1.06;100.00
50349;BME280;36250;48.740;22.174;2022-12-17T09:00:58;99998.94;;;1.05;100.00
50349;BME280;36250;48.740;22.174;2022-12-17T09:03:45;99997.28;;;1.04;100.00
50349;BME280;36250;48.740;22.174;2022-12-17T09:06:29;99994.41;;;1.07;100.00
50349;BME280;36250;48.740;22.174;2022-12-17T09:09:13;99995.78;;;1.11;100.00
50349;BME280;36250;48.740;22.174;2022-12-17T09:11:57;99997.81;;;1.08;100.00
50349;BME280;36250;48.740;22.174;2022-12-17T09:14:41;100004.94;;;1.06;100.00
50349;BME280;36250;48.740;22.174;2022-12-17T09:17:25;100001.25;;;1.08;100.00
50349;BME280;36250;48.740;22.174;2022-12-17T09:20:09;99987.91;;;1.01;100.00
50349;BME280;36250;48.740;22.174;2022-12-17T09:22:53;100003.34;;;1.14;100.00
50349;BME280;36250;48.740;22.174;2022-12-17T09:25:37;100009.09;;;1.18;100.00
50349;BME280;36250;48.740;22.174;2022-12-17T09:28:21;100011.00;;;1.16;100.00
50349;BME280;36250;48.740;22.174;2022-12-17T09:31:05;100016.81;;;1.20;100.00
50349;BME280;36250;48.740;22.174;2022-12-17T09:33:49;100032.75;;;1.26;100.00
50349;BME280;36250;48.740;22.174;2022-12-17T09:36:33;100030.25;;;1.25;100.00
50349;BME280;36250;48.740;22.174;2022-12-17T09:39:17;100021.19;;;1.19;100.00
50349;BME280;36250;48.740;22.174;2022-12-17T09:42:13;100027.91;;;1.12;100.00
50349;BME280;36250;48.740;22.174;2022-12-17T09:49:00;100046.16;;;1.02;100.00
50349;BME280;36250;48.740;22.174;2022-12-17T09:51:22;100048.44;;;0.95;100.00
50349;BME280;36250;48.740;22.174;2022-12-17T09:54:14;100059.69;;;0.96;100.00
50349;BME280;36250;48.740;22.174;2022-12-17T09:57:02;100060.38;;;0.98;100.00
50349;BME280;36250;48.740;22.174;2022-12-17T09:59:47;100068.84;;;0.80;100.00
50349;BME280;36250;48.740;22.174;2022-12-17T10:02:31;100072.22;;;0.71;100.00
50349;BME280;36250;48.740;22.174;2022-12-17T10:05:25;100077.28;;;0.63;100.00
50349;BME280;36250;48.740;22.174;2022-12-17T10:08:17;100068.72;;;0.61;100.00
50349;BME280;36250;48.740;22.174;2022-12-17T10:11:19;100073.00;;;0.62;100.00
50349;BME280;36250;48.740;22.174;2022-12-17T10:14:18;100064.25;;;0.63;100.00
50349;BME280;36250;48.740;22.174;2022-12-17T10:17:18;100065.03;;;0.63;100.00
50349;BME280;36250;48.740;22.174;2022-12-17T10:23:22;100088.69;;;0.71;100.00
50349;BME280;36250;48.740;22.174;2022-12-17T10:26:06;100084.75;;;0.77;100.00
50349;BME280;36250;48.740;22.174;2022-12-17T10:28:55;100104.97;;;0.85;100.00
50349;BME280;36250;48.740;22.174;2022-12-17T10:31:42;100123.78;;;0.89;100.00
50349;BME280;36250;48.740;22.174;2022-12-17T10:34:26;100109.25;;;0.96;100.00
50349;BME280;36250;48.740;22.174;2022-12-17T10:37:18;100099.41;;;0.99;100.00
50349;BME280;36250;48.740;22.174;2022-12-17T10:40:16;100110.13;;;1.06;100.00
50349;BME280;36250;48.740;22.174;2022-12-17T10:43:00;100129.09;;;1.08;100.00
50349;BME280;36250;48.740;22.174;2022-12-17T10:45:52;100125.75;;;1.27;100.00
50349;BME280;36250;48.740;22.174;2022-12-17T10:48:37;100122.47;;;1.45;100.00
50349;BME280;36250;48.740;22.174;2022-12-17T10:51:29;100119.22;;;1.53;100.00
50349;BME280;36250;48.740;22.174;2022-12-17T10:54:28;100116.03;;;1.49;100.00
50349;BME280;36250;48.740;22.174;2022-12-17T10:57:33;100140.72;;;1.35;100.00
50349;BME280;36250;48.740;22.174;2022-12-17T11:00:32;100140.16;;;1.32;100.00
50349;BME280;36250;48.740;22.174;2022-12-17T11:03:32;100134.41;;;1.38;100.00
50349;BME280;36250;48.740;22.174;2022-12-17T11:06:25;100138.91;;;1.26;100.00
50349;BME280;36250;48.740;22.174;2022-12-17T11:09:22;100129.16;;;1.28;100.00
50349;BME280;36250;48.740;22.174;2022-12-17T11:12:09;100147.38;;;1.18;100.00
50349;BME280;36250;48.740;22.174;2022-12-17T11:14:56;100153.34;;;1.30;100.00
50349;BME280;36250;48.740;22.174;2022-12-17T11:17:43;100169.25;;;1.27;100.00
50349;BME280;36250;48.740;22.174;2022-12-17T11:21:22;100159.13;;;1.34;100.00
50349;BME280;36250;48.740;22.174;2022-12-17T11:24:00;100184.44;;;1.43;100.00
50349;BME280;36250;48.740;22.174;2022-12-17T11:26:46;100187.53;;;1.58;100.00
50349;BME280;36250;48.740;22.174;2022-12-17T11:29:32;100191.78;;;1.59;100.00
50349;BME280;36250;48.740;22.174;2022-12-17T11:32:39;100200.25;;;1.51;100.00
50349;BME280;36250;48.740;22.174;2022-12-17T11:41:13;100208.31;;;1.38;100.00
50349;BME280;36250;48.740;22.174;2022-12-17T11:44:23;100211.00;;;1.27;100.00
50349;BME280;36250;48.740;22.174;2022-12-17T11:50:27;100220.16;;;1.11;100.00
50349;BME280;36250;48.740;22.174;2022-12-17T11:57:10;100246.75;;;1.05;100.00
50349;BME280;36250;48.740;22.174;2022-12-17T12:00:03;100254.56;;;1.05;100.00
50349;BME280;36250;48.740;22.174;2022-12-17T12:03:01;100270.66;;;1.10;100.00
50349;BME280;36250;48.740;22.174;2022-12-17T12:05:52;100279.72;;;1.06;100.00
50349;BME280;36250;48.740;22.174;2022-12-17T12:11:39;100282.50;;;0.93;100.00
50349;BME280;36250;48.740;22.174;2022-12-17T12:17:34;100285.56;;;0.98;100.00
50349;BME280;36250;48.740;22.174;2022-12-17T12:27:07;100313.88;;;1.03;100.00
50349;BME280;36250;48.740;22.174;2022-12-17T12:30:10;100326.94;;;1.03;100.00
50349;BME280;36250;48.740;22.174;2022-12-17T12:35:56;100348.50;;;1.05;100.00
50349;BME280;36250;48.740;22.174;2022-12-17T12:38:43;100363.06;;;1.08;100.00
50349;BME280;36250;48.740;22.174;2022-12-17T12:51:10;100399.72;;;0.95;100.00
50349;BME280;36250;48.740;22.174;2022-12-17T12:54:00;100391.94;;;0.83;100.00
50349;BME280;36250;48.740;22.174;2022-12-17T12:56:44;100396.81;;;0.77;100.00
50349;BME280;36250;48.740;22.174;2022-12-17T12:59:33;100397.31;;;0.70;100.00
50349;BME280;36250;48.740;22.174;2022-12-17T13:02:29;100400.41;;;0.64;100.00
50349;BME280;36250;48.740;22.174;2022-12-17T13:05:27;100415.69;;;0.57;100.00
50349;BME280;36250;48.740;22.174;2022-12-17T13:08:24;100410.00;;;0.52;100.00
50349;BME280;36250;48.740;22.174;2022-12-17T13:10:51;100413.81;;;0.48;100.00
50349;BME280;36250;48.740;22.174;2022-12-17T13:15:52;100404.09;;;0.50;100.00
50349;BME280;36250;48.740;22.174;2022-12-17T13:18:23;100397.09;;;0.51;100.00
50349;BME280;36250;48.740;22.174;2022-12-17T13:23:42;100421.38;;;0.51;100.00
50349;BME280;36250;48.740;22.174;2022-12-17T13:29:17;100436.31;;;0.49;100.00
50349;BME280;36250;48.740;22.174;2022-12-17T13:34:36;100423.53;;;0.35;100.00
50349;BME280;36250;48.740;22.174;2022-12-17T13:37:30;100437.63;;;0.21;100.00
50349;BME280;36250;48.740;22.174;2022-12-17T13:43:15;100463.19;;;0.16;100.00
50349;BME280;36250;48.740;22.174;2022-12-17T13:45:42;100476.47;;;0.12;100.00
50349;BME280;36250;48.740;22.174;2022-12-17T13:48:19;100483.44;;;0.12;100.00
50349;BME280;36250;48.740;22.174;2022-12-17T13:50:55;100489.47;;;0.12;100.00
50349;BME280;36250;48.740;22.174;2022-12-17T13:53:22;100482.84;;;0.08;100.00
50349;BME280;36250;48.740;22.174;2022-12-17T13:55:52;100493.97;;;0.10;100.00
50349;BME280;36250;48.740;22.174;2022-12-17T13:58:25;100513.63;;;0.14;100.00
50349;BME280;36250;48.740;22.174;2022-12-17T14:01:12;100511.84;;;0.15;100.00
50349;BME280;36250;48.740;22.174;2022-12-17T14:03:42;100528.56;;;0.12;100.00
50349;BME280;36250;48.740;22.174;2022-12-17T14:06:12;100525.09;;;0.12;100.00
50349;BME280;36250;48.740;22.174;2022-12-17T14:08:38;100532.34;;;0.08;100.00
50349;BME280;36250;48.740;22.174;2022-12-17T14:11:04;100549.84;;;0.06;100.00
50349;BME280;36250;48.740;22.174;2022-12-17T14:13:48;100554.69;;;-0.01;100.00
50349;BME280;36250;48.740;22.174;2022-12-17T14:16:18;100548.75;;;-0.03;100.00
50349;BME280;36250;48.740;22.174;2022-12-17T14:18:50;100561.78;;;-0.03;100.00
50349;BME280;36250;48.740;22.174;2022-12-17T14:21:16;100567.22;;;-0.06;100.00
50349;BME280;36250;48.740;22.174;2022-12-17T14:23:43;100577.63;;;-0.06;100.00
50349;BME280;36250;48.740;22.174;2022-12-17T14:26:10;100597.63;;;-0.06;100.00
50349;BME280;36250;48.740;22.174;2022-12-17T14:28:48;100595.88;;;-0.06;100.00
50349;BME280;36250;48.740;22.174;2022-12-17T14:33:43;100605.88;;;-0.12;100.00
50349;BME280;36250;48.740;22.174;2022-12-17T14:36:18;100613.50;;;-0.22;100.00
50349;BME280;36250;48.740;22.174;2022-12-17T14:38:59;100619.75;;;-0.36;100.00
50349;BME280;36250;48.740;22.174;2022-12-17T14:41:26;100624.84;;;-0.48;100.00
50349;BME280;36250;48.740;22.174;2022-12-17T14:44:21;100629.69;;;-0.54;100.00
50349;BME280;36250;48.740;22.174;2022-12-17T14:46:49;100640.09;;;-0.54;100.00
50349;BME280;36250;48.740;22.174;2022-12-17T14:49:20;100658.53;;;-0.57;100.00
50349;BME280;36250;48.740;22.174;2022-12-17T14:51:47;100656.00;;;-0.59;100.00
50349;BME280;36250;48.740;22.174;2022-12-17T14:56:45;100654.78;;;-0.66;100.00
50349;BME280;36250;48.740;22.174;2022-12-17T14:59:34;100658.31;;;-0.67;100.00
50349;BME280;36250;48.740;22.174;2022-12-17T15:02:03;100663.94;;;-0.74;100.00
50349;BME280;36250;48.740;22.174;2022-12-17T15:04:30;100671.75;;;-0.74;100.00
50349;BME280;36250;48.740;22.174;2022-12-17T15:06:56;100671.63;;;-0.72;100.00
50349;BME280;36250;48.740;22.174;2022-12-17T15:09:23;100675.16;;;-0.73;100.00
50349;BME280;36250;48.740;22.174;2022-12-17T15:11:48;100684.75;;;-0.74;100.00
50349;BME280;36250;48.740;22.174;2022-12-17T15:14:14;100687.44;;;-0.75;100.00
50349;BME280;36250;48.740;22.174;2022-12-17T15:16:39;100695.47;;;-0.78;100.00
50349;BME280;36250;48.740;22.174;2022-12-17T15:19:05;100694.97;;;-0.83;100.00
50349;BME280;36250;48.740;22.174;2022-12-17T15:21:30;100704.72;;;-0.87;100.00
50349;BME280;36250;48.740;22.174;2022-12-17T15:23:56;100710.56;;;-0.83;100.00
50349;BME280;36250;48.740;22.174;2022-12-17T15:26:21;100712.44;;;-0.85;100.00